DucheSS Of Scandinavia — OUZI2 — position and weather

sailwx.info

Track history (hours):
 
Tides and Currents Weather Stations Pressure Air Temp Water Temp Dewpoint Dewpoint Depression Visibility Wind Speed Wind Dir Waves Ship Positions

DucheSS Of Scandinavia

Operator: DFDS A/S

Last reported at 2018-Oct-20 13:30 UTC. Time now 2018-Oct-20 13:37 UTC.
Position N 59°06' E 010°14'.

Length 134 m; draft 5.4 m.

Type: Passenger vessel. MMSI: 219002929.

Date/timePositionNaut miles runAvg speedWind from/ knotsBaromVisibWave heightAir tempDewpointWater temp
2018-Oct-20 13:30N 59°06' E 010°14'1 3.3
2018-Oct-20 13:03N 59°08' E 010°14'0 0.0
2018-Oct-20 13:01N 59°08' E 010°14'0 0.4
2018-Oct-20 12:30N 59°07' E 010°14'511.6
2018-Oct-20 12:04N 59°02' E 010°16'113.8
2018-Oct-20 12:01N 59°02' E 010°16'714.6
2018-Oct-20 11:31N 59°00' E 010°30'715.3
2018-Oct-20 11:03N 59°02' E 010°43'115.2
2018-Oct-20 11:00N 59°02' E 010°45'714.8
2018-Oct-20 10:31N 58°60' E 010°58'714.6
2018-Oct-20 10:03N 58°56' E 011°09'0 9.9
2018-Oct-20 10:01N 58°56' E 011°09'0 0.8
2018-Oct-20 09:31N 58°56' E 011°10'0 0.0
2018-Oct-20 09:04N 58°56' E 011°10'0 0.2
2018-Oct-20 09:00N 58°56' E 011°10'611.8
2018-Oct-20 08:30N 58°59' E 011°00'716.3
2018-Oct-20 08:03N 59°02' E 010°47'116.6
2018-Oct-20 08:00N 59°02' E 010°45'816.0
2018-Oct-20 07:30N 59°00' E 010°30'715.8
2018-Oct-20 07:04N 59°02' E 010°17'115.1
2018-Oct-20 07:01N 59°02' E 010°16'611.1
2018-Oct-20 06:31N 59°07' E 010°14'0 0.2
2018-Oct-20 06:03N 59°08' E 010°14'0 0.0
2018-Oct-20 06:01N 59°08' E 010°14'0 0.5
2018-Oct-20 05:31N 59°07' E 010°14'1 2.6
2018-Oct-20 05:03N 59°06' E 010°14'0 0.0
2018-Oct-20 04:59N 59°06' E 010°14'0 0.0
2018-Oct-20 04:30N 59°06' E 010°14'0 0.0
2018-Oct-20 04:03N 59°06' E 010°14'0 0.0
2018-Oct-20 04:00N 59°06' E 010°14'0 0.0
2018-Oct-20 03:30N 59°06' E 010°14'0 0.0
2018-Oct-20 03:01N 59°06' E 010°14'0 0.1
2018-Oct-20 02:58N 59°06' E 010°14'0 0.0
2018-Oct-20 02:28N 59°06' E 010°14'0 0.0
2018-Oct-20 02:01N 59°06' E 010°14'0 0.1
2018-Oct-20 01:58N 59°06' E 010°14'0 0.0
2018-Oct-20 01:29N 59°06' E 010°14'0 0.0
2018-Oct-20 01:02N 59°06' E 010°14'0 0.1
2018-Oct-20 00:59N 59°06' E 010°14'0 0.0
2018-Oct-20 00:29N 59°06' E 010°14'0 0.0
2018-Oct-20 00:03N 59°06' E 010°14'0 0.1
2018-Oct-20 00:00N 59°06' E 010°14'0 0.0
2018-Oct-19 23:30N 59°06' E 010°14'0 0.0
2018-Oct-19 23:03N 59°06' E 010°14'0 0.1
2018-Oct-19 23:00N 59°06' E 010°14'0 0.0
2018-Oct-19 22:28N 59°06' E 010°14'0 0.0
2018-Oct-19 21:58N 59°06' E 010°14'0 0.0
2018-Oct-19 21:29N 59°06' E 010°14'0 0.0
2018-Oct-19 21:02N 59°06' E 010°14'0 0.0
2018-Oct-19 20:59N 59°06' E 010°14'0 0.0
2018-Oct-19 20:29N 59°06' E 010°14'0 0.0
2018-Oct-19 20:02N 59°06' E 010°14'0 0.2
2018-Oct-19 20:01N 59°06' E 010°14'1 2.9
2018-Oct-19 19:30N 59°08' E 010°14'0 0.0
2018-Oct-19 19:04N 59°08' E 010°14'0 2.9
2018-Oct-19 19:00N 59°07' E 010°14'611.8
2018-Oct-19 18:31N 59°02' E 010°16'715.0
2018-Oct-19 18:04N 59°01' E 010°29'115.2
2018-Oct-19 18:01N 59°01' E 010°30'815.2
2018-Oct-19 17:30N 59°02' E 010°45'715.6
2018-Oct-19 17:03N 58°60' E 010°58'115.6
2018-Oct-19 17:01N 58°60' E 010°60'612.9
2018-Oct-19 16:30N 58°56' E 011°10'0 0.1
2018-Oct-19 16:04N 58°56' E 011°10'0 0.0
2018-Oct-19 16:01N 58°56' E 011°10'5 9.1
2018-Oct-19 15:31N 58°58' E 011°02'715.5
2018-Oct-19 15:04N 59°01' E 010°50'115.9
2018-Oct-19 15:01N 59°01' E 010°49'815.8
2018-Oct-19 14:31N 59°01' E 010°34'1212.0
2018-Oct-19 13:30N 59°07' E 010°14'1 1.5
2018-Oct-19 13:04N 59°08' E 010°14'0 0.0
2018-Oct-19 13:01N 59°08' E 010°14'0 0.1
2018-Oct-19 12:31N 59°08' E 010°14'510.8
2018-Oct-19 12:03N 59°03' E 010°15'114.4
2018-Oct-19 12:00N 59°02' E 010°16'714.1
2018-Oct-19 11:31N 59°00' E 010°29'714.8
2018-Oct-19 11:03N 59°01' E 010°42'114.5
2018-Oct-19 11:00N 59°02' E 010°43'714.2
2018-Oct-19 10:31N 59°00' E 010°57'715.1
2018-Oct-19 10:04N 58°56' E 011°07'114.1
2018-Oct-19 10:00N 58°56' E 011°09'1 1.7
2018-Oct-19 09:31N 58°56' E 011°10'0 0.0
2018-Oct-19 09:04N 58°56' E 011°10'0 0.3
2018-Oct-19 09:00N 58°56' E 011°10'611.4
2018-Oct-19 08:30N 58°59' E 011°01'715.9
2018-Oct-19 08:03N 59°02' E 010°48'115.9
2018-Oct-19 08:00N 59°02' E 010°46'816.0
2018-Oct-19 07:31N 59°00' E 010°31'715.5
2018-Oct-19 07:03N 59°01' E 010°18'115.3
2018-Oct-19 07:01N 59°02' E 010°16'611.7
2018-Oct-19 06:30N 59°07' E 010°14'0 0.4
2018-Oct-19 06:03N 59°08' E 010°14'0 0.1
2018-Oct-19 06:01N 59°08' E 010°14'0 0.4
2018-Oct-19 05:30N 59°07' E 010°14'1 2.7
2018-Oct-19 05:03N 59°06' E 010°14'0 0.1
2018-Oct-19 05:00N 59°06' E 010°14'0 0.0
2018-Oct-19 04:30N 59°06' E 010°14'0 0.0
2018-Oct-19 04:01N 59°06' E 010°14'0 0.0
2018-Oct-19 03:58N 59°06' E 010°14'0 0.0
2018-Oct-19 03:28N 59°06' E 010°14'0 0.0
2018-Oct-19 03:01N 59°06' E 010°14'0 0.1
2018-Oct-19 02:58N 59°06' E 010°14'0 0.0
2018-Oct-19 02:29N 59°06' E 010°14'0 0.0
2018-Oct-19 02:02N 59°06' E 010°14'0 0.1
2018-Oct-19 01:59N 59°06' E 010°14'0 0.0
2018-Oct-19 01:29N 59°06' E 010°14'0 0.0
2018-Oct-19 01:03N 59°06' E 010°14'0 0.1
2018-Oct-19 01:00N 59°06' E 010°14'0 0.0
2018-Oct-19 00:30N 59°06' E 010°14'0 0.0
2018-Oct-19 00:03N 59°06' E 010°14'0 0.1
2018-Oct-19 00:00N 59°06' E 010°14'0 0.0
2018-Oct-18 23:28N 59°06' E 010°14'0 0.0
2018-Oct-18 23:01N 59°06' E 010°14'0 0.0
2018-Oct-18 22:58N 59°06' E 010°14'0 0.0
2018-Oct-18 22:28N 59°06' E 010°14'0 0.0
2018-Oct-18 22:02N 59°06' E 010°14'0 0.0
2018-Oct-18 21:59N 59°06' E 010°14'0 0.0
2018-Oct-18 21:29N 59°06' E 010°14'0 0.0
2018-Oct-18 21:02N 59°06' E 010°14'0 0.1
2018-Oct-18 20:59N 59°06' E 010°14'0 0.0
2018-Oct-18 20:30N 59°06' E 010°14'0 0.0
2018-Oct-18 20:04N 59°06' E 010°14'0 0.0
2018-Oct-18 20:01N 59°06' E 010°14'1 2.5
2018-Oct-18 19:31N 59°07' E 010°14'0 0.3
2018-Oct-18 19:03N 59°08' E 010°14'0 3.1
2018-Oct-18 19:00N 59°07' E 010°14'611.4
2018-Oct-18 18:31N 59°02' E 010°16'715.4
2018-Oct-18 18:04N 59°00' E 010°29'115.6
2018-Oct-18 18:01N 59°00' E 010°31'815.7
2018-Oct-18 17:31N 59°02' E 010°46'715.4
2018-Oct-18 17:04N 58°60' E 010°59'115.3
2018-Oct-18 17:01N 58°59' E 011°00'612.4
2018-Oct-18 16:30N 58°56' E 011°10'0 0.1
2018-Oct-18 16:03N 58°56' E 011°10'0 0.1
2018-Oct-18 16:00N 58°56' E 011°10'3 6.9
2018-Oct-18 15:31N 58°57' E 011°04'714.9
2018-Oct-18 15:03N 59°01' E 010°53'115.7
2018-Oct-18 15:01N 59°01' E 010°52'815.4
2018-Oct-18 14:30N 59°01' E 010°37'1312.8
2018-Oct-18 13:31N 59°06' E 010°14'2 3.5
2018-Oct-18 13:04N 59°08' E 010°14'0 0.0
2018-Oct-18 13:00N 59°08' E 010°14'0 0.3
2018-Oct-18 12:30N 59°07' E 010°14'511.4
2018-Oct-18 12:04N 59°02' E 010°15'114.8
2018-Oct-18 12:01N 59°02' E 010°16'713.9
2018-Oct-18 11:31N 59°00' E 010°29'714.9
2018-Oct-18 11:04N 59°01' E 010°42'115.5
2018-Oct-18 11:01N 59°02' E 010°44'714.7
2018-Oct-18 10:31N 59°00' E 010°58'714.5
2018-Oct-18 10:03N 58°56' E 011°08'012.5
2018-Oct-18 10:00N 58°56' E 011°09'1 1.4
2018-Oct-18 09:30N 58°56' E 011°10'0 0.0
2018-Oct-18 09:04N 58°56' E 011°10'0 0.1
2018-Oct-18 09:01N 58°56' E 011°10'510.9
2018-Oct-18 08:31N 58°59' E 011°01'716.0
2018-Oct-18 08:03N 59°02' E 010°48'116.0
2018-Oct-18 08:00N 59°02' E 010°47'815.6
2018-Oct-18 07:31N 59°00' E 010°32'715.2
2018-Oct-18 07:04N 59°01' E 010°18'115.4
2018-Oct-18 07:01N 59°01' E 010°17'612.4
2018-Oct-18 06:31N 59°07' E 010°14'0 0.4
2018-Oct-18 06:04N 59°08' E 010°14'0 0.0
2018-Oct-18 06:01N 59°08' E 010°14'1 2.9
2018-Oct-18 05:30N 59°06' E 010°14'0 0.1
2018-Oct-18 05:02N 59°06' E 010°14'0 0.0
2018-Oct-18 04:59N 59°06' E 010°14'0 0.0
2018-Oct-18 04:30N 59°06' E 010°14'0 0.0
2018-Oct-18 04:03N 59°06' E 010°14'0 0.1
2018-Oct-18 04:00N 59°06' E 010°14'0 0.0
2018-Oct-18 03:30N 59°06' E 010°14'0 0.0
2018-Oct-18 03:01N 59°06' E 010°14'0 0.0
2018-Oct-18 02:58N 59°06' E 010°14'0 0.0
2018-Oct-18 02:28N 59°06' E 010°14'0 0.0
2018-Oct-18 02:01N 59°06' E 010°14'0 0.0
2018-Oct-18 01:59N 59°06' E 010°14'0 0.0
2018-Oct-18 01:29N 59°06' E 010°14'0 0.0
2018-Oct-18 01:02N 59°06' E 010°14'0 0.0
2018-Oct-18 00:59N 59°06' E 010°14'0 0.0
2018-Oct-18 00:30N 59°06' E 010°14'0 0.0
2018-Oct-18 00:03N 59°06' E 010°14'0 0.1
2018-Oct-18 00:00N 59°06' E 010°14'0 0.0
2018-Oct-17 23:30N 59°06' E 010°14'0 0.0
2018-Oct-17 23:03N 59°06' E 010°14'0 0.1
2018-Oct-17 23:01N 59°06' E 010°14'0 0.0
2018-Oct-17 22:28N 59°06' E 010°14'0 0.0
2018-Oct-17 22:01N 59°06' E 010°14'0 0.1
2018-Oct-17 21:58N 59°06' E 010°14'0 0.0
2018-Oct-17 21:29N 59°06' E 010°14'0 0.0
2018-Oct-17 21:02N 59°06' E 010°14'0 0.0
2018-Oct-17 20:59N 59°06' E 010°14'0 0.0
2018-Oct-17 20:29N 59°06' E 010°14'0 0.0
2018-Oct-17 20:04N 59°06' E 010°14'0 0.0
2018-Oct-17 20:01N 59°06' E 010°14'1 2.9
2018-Oct-17 19:31N 59°08' E 010°14'0 0.1
2018-Oct-17 19:04N 59°08' E 010°14'0 2.8
2018-Oct-17 19:00N 59°07' E 010°14'612.1
2018-Oct-17 18:30N 59°02' E 010°16'714.6
2018-Oct-17 18:04N 59°00' E 010°29'114.5
2018-Oct-17 18:01N 59°00' E 010°30'714.8
2018-Oct-17 17:31N 59°02' E 010°45'714.8
2018-Oct-17 17:04N 59°00' E 010°57'114.9
2018-Oct-17 17:00N 58°60' E 010°58'713.8
2018-Oct-17 16:30N 58°56' E 011°09'0 1.1
2018-Oct-17 16:04N 58°56' E 011°10'0 0.0
2018-Oct-17 16:00N 58°56' E 011°10'3 6.9
2018-Oct-17 15:31N 58°57' E 011°04'714.8
2018-Oct-17 15:03N 59°01' E 010°53'115.9
2018-Oct-17 15:01N 59°01' E 010°52'815.3
2018-Oct-17 14:30N 59°01' E 010°37'1312.8
2018-Oct-17 13:31N 59°06' E 010°14'2 3.7
2018-Oct-17 13:04N 59°08' E 010°14'0 0.0
2018-Oct-17 13:01N 59°08' E 010°14'0 0.1
2018-Oct-17 12:31N 59°08' E 010°14'511.5
2018-Oct-17 12:03N 59°02' E 010°15'114.6
2018-Oct-17 12:01N 59°02' E 010°16'714.5
2018-Oct-17 11:31N 59°00' E 010°30'714.8
2018-Oct-17 11:04N 59°02' E 010°43'115.0
2018-Oct-17 11:01N 59°02' E 010°44'714.5
2018-Oct-17 10:31N 59°00' E 010°58'714.4
2018-Oct-17 10:03N 58°56' E 011°08'113.5
2018-Oct-17 10:00N 58°56' E 011°09'1 1.6
2018-Oct-17 09:30N 58°56' E 011°10'0 0.0
2018-Oct-17 09:04N 58°56' E 011°10'0 0.2
2018-Oct-17 09:00N 58°56' E 011°10'510.2
2018-Oct-17 08:31N 58°58' E 011°02'715.5
2018-Oct-17 08:03N 59°01' E 010°49'116.0
2018-Oct-17 08:01N 59°02' E 010°48'815.6
2018-Oct-17 07:30N 59°01' E 010°33'714.9
2018-Oct-17 07:04N 59°01' E 010°20'115.8
2018-Oct-17 07:01N 59°01' E 010°18'612.4
2018-Oct-17 06:30N 59°07' E 010°14'0 1.0
2018-Oct-17 06:04N 59°08' E 010°14'0 0.0
2018-Oct-17 06:01N 59°08' E 010°14'1 2.8
2018-Oct-17 05:30N 59°06' E 010°14'0 0.2
2018-Oct-17 04:59N 59°06' E 010°14'0 0.0
2018-Oct-17 04:29N 59°06' E 010°14'0 0.0
2018-Oct-17 04:02N 59°06' E 010°14'0 0.0
2018-Oct-17 03:59N 59°06' E 010°14'0 0.0
2018-Oct-17 03:30N 59°06' E 010°14'0 0.0
2018-Oct-17 03:03N 59°06' E 010°14'0 0.0
2018-Oct-17 03:00N 59°06' E 010°14'0 0.0
2018-Oct-17 02:30N 59°06' E 010°14'0 0.0
2018-Oct-17 02:01N 59°06' E 010°14'0 0.0
2018-Oct-17 01:58N 59°06' E 010°14'0 0.0
2018-Oct-17 01:28N 59°06' E 010°14'0 0.0
2018-Oct-17 01:01N 59°06' E 010°14'0 0.0
2018-Oct-17 00:58N 59°06' E 010°14'0 0.0
2018-Oct-17 00:29N 59°06' E 010°14'0 0.0
2018-Oct-17 00:02N 59°06' E 010°14'0 0.0
2018-Oct-16 23:59N 59°06' E 010°14'0 0.0
2018-Oct-16 23:29N 59°06' E 010°14'0 0.0
2018-Oct-16 23:03N 59°06' E 010°14'0 0.0
2018-Oct-16 23:00N 59°06' E 010°14'0 0.0
2018-Oct-16 22:30N 59°06' E 010°14'0 0.0
2018-Oct-16 22:03N 59°06' E 010°14'0 0.0
2018-Oct-16 22:00N 59°06' E 010°14'0 0.0
2018-Oct-16 21:28N 59°06' E 010°14'0 0.0
2018-Oct-16 21:01N 59°06' E 010°14'0 0.1
2018-Oct-16 20:58N 59°06' E 010°14'0 0.0
2018-Oct-16 20:28N 59°06' E 010°14'0 0.0
2018-Oct-16 20:04N 59°06' E 010°14'0 0.0
2018-Oct-16 20:01N 59°06' E 010°14'1 2.2
2018-Oct-16 19:31N 59°07' E 010°14'0 0.7
2018-Oct-16 19:03N 59°08' E 010°14'0 2.4
2018-Oct-16 19:00N 59°07' E 010°14'611.3
2018-Oct-16 18:31N 59°02' E 010°16'613.8
2018-Oct-16 18:04N 59°00' E 010°28'114.4
2018-Oct-16 18:01N 59°00' E 010°29'815.1
2018-Oct-16 17:31N 59°02' E 010°43'714.7
2018-Oct-16 17:04N 59°00' E 010°56'115.2
2018-Oct-16 17:01N 59°00' E 010°57'714.4
2018-Oct-16 16:30N 58°56' E 011°09'1 1.9
2018-Oct-16 16:04N 58°56' E 011°10'0 0.0
2018-Oct-16 16:01N 58°56' E 011°10'3 6.5
2018-Oct-16 15:31N 58°57' E 011°04'714.9
2018-Oct-16 15:04N 59°01' E 010°54'115.4
2018-Oct-16 15:01N 59°01' E 010°52'715.0
2018-Oct-16 14:31N 59°01' E 010°38'815.1
2018-Oct-16 14:00N 59°01' E 010°23'612.5
2018-Oct-16 13:31N 59°05' E 010°14'2 5.3
2018-Oct-16 13:04N 59°08' E 010°14'0 0.1
2018-Oct-16 13:01N 59°08' E 010°14'0 0.2
2018-Oct-16 12:30N 59°07' E 010°14'511.1
2018-Oct-16 12:04N 59°03' E 010°15'114.1
2018-Oct-16 12:01N 59°02' E 010°16'714.7
2018-Oct-16 11:31N 59°00' E 010°30'714.8
2018-Oct-16 11:04N 59°02' E 010°42'114.6
2018-Oct-16 11:01N 59°02' E 010°44'714.2
2018-Oct-16 10:31N 59°00' E 010°57'714.8
2018-Oct-16 10:03N 58°56' E 011°07'114.4
2018-Oct-16 10:00N 58°56' E 011°09'1 1.6
2018-Oct-16 09:30N 58°56' E 011°10'0 0.0
2018-Oct-16 09:03N 58°56' E 011°10'0 0.2
2018-Oct-16 09:01N 58°56' E 011°10'510.9
2018-Oct-16 08:31N 58°59' E 011°01'714.5
2018-Oct-16 08:04N 59°01' E 010°49'115.1
2018-Oct-16 08:01N 59°02' E 010°48'815.4
2018-Oct-16 07:31N 59°01' E 010°33'714.8
2018-Oct-16 07:04N 59°01' E 010°20'115.2
2018-Oct-16 07:01N 59°01' E 010°19'612.2
2018-Oct-16 06:31N 59°07' E 010°14'1 1.6
2018-Oct-16 06:03N 59°08' E 010°14'0 0.0
2018-Oct-16 06:01N 59°08' E 010°14'1 2.8
2018-Oct-16 05:30N 59°06' E 010°14'0 0.1
2018-Oct-16 05:03N 59°06' E 010°14'0 0.1
2018-Oct-16 05:00N 59°06' E 010°14'0 0.0
2018-Oct-16 04:30N 59°06' E 010°14'0 0.0
2018-Oct-16 04:01N 59°06' E 010°14'0 0.1
2018-Oct-16 03:55N 59°06' E 010°14'0 0.0
2018-Oct-16 03:28N 59°06' E 010°14'0 0.0
2018-Oct-16 03:01N 59°06' E 010°14'0 0.0
2018-Oct-16 02:58N 59°06' E 010°14'0 0.0
2018-Oct-16 02:29N 59°06' E 010°14'0 0.0
2018-Oct-16 02:02N 59°06' E 010°14'0 0.0
2018-Oct-16 01:59N 59°06' E 010°14'0 0.0
2018-Oct-16 01:29N 59°06' E 010°14'0 0.0
2018-Oct-16 01:03N 59°06' E 010°14'0 0.1
2018-Oct-16 01:00N 59°06' E 010°14'0 0.0
2018-Oct-16 00:30N 59°06' E 010°14'0 0.0
2018-Oct-16 00:03N 59°06' E 010°14'0 0.1
2018-Oct-16 00:00N 59°06' E 010°14'0 0.0
2018-Oct-15 23:25N 59°06' E 010°14'0 0.0
2018-Oct-15 23:01N 59°06' E 010°14'0 0.0
2018-Oct-15 22:58N 59°06' E 010°14'0 0.0
2018-Oct-15 22:28N 59°06' E 010°14'0 0.0
2018-Oct-15 22:02N 59°06' E 010°14'0 0.0
2018-Oct-15 21:59N 59°06' E 010°14'0 0.0
2018-Oct-15 21:29N 59°06' E 010°14'0 0.0
2018-Oct-15 21:02N 59°06' E 010°14'0 0.0
2018-Oct-15 20:59N 59°06' E 010°14'0 0.0
2018-Oct-15 20:27N 59°06' E 010°14'0 0.0
2018-Oct-15 20:03N 59°06' E 010°14'0 0.1
2018-Oct-15 20:00N 59°06' E 010°14'0 0.1
2018-Oct-15 19:30N 59°06' E 010°14'1 3.1
2018-Oct-15 19:04N 59°08' E 010°14'0 0.1
2018-Oct-15 19:00N 59°08' E 010°14'510.1
2018-Oct-15 18:31N 59°03' E 010°15'613.2
2018-Oct-15 18:04N 59°00' E 010°26'114.8
2018-Oct-15 18:00N 59°00' E 010°28'815.7
2018-Oct-15 17:31N 59°02' E 010°43'716.3
2018-Oct-15 17:03N 59°00' E 010°57'114.7
2018-Oct-15 17:00N 59°00' E 010°58'714.1
2018-Oct-15 16:30N 58°56' E 011°08'1 2.0
2018-Oct-15 16:04N 58°56' E 011°10'0 0.0
2018-Oct-15 16:01N 58°56' E 011°10'3 6.5
2018-Oct-15 15:31N 58°57' E 011°04'715.3
2018-Oct-15 15:03N 59°01' E 010°53'115.7
2018-Oct-15 15:00N 59°01' E 010°52'1415.1
2018-Oct-15 14:03N 59°01' E 010°24'115.5
2018-Oct-15 14:00N 59°01' E 010°22'612.8
2018-Oct-15 13:30N 59°06' E 010°14'2 3.9
2018-Oct-15 13:04N 59°08' E 010°14'0 0.0
2018-Oct-15 13:01N 59°08' E 010°14'0 0.1
2018-Oct-15 12:31N 59°08' E 010°14'511.1
2018-Oct-15 12:03N 59°03' E 010°15'114.9
2018-Oct-15 12:00N 59°02' E 010°16'714.2
2018-Oct-15 11:30N 59°01' E 010°29'714.7
2018-Oct-15 11:03N 59°02' E 010°42'114.7
2018-Oct-15 11:01N 59°02' E 010°44'714.6
2018-Oct-15 10:30N 59°00' E 010°57'714.8
2018-Oct-15 10:03N 58°56' E 011°08'112.1
2018-Oct-15 10:00N 58°56' E 011°09'1 1.7
2018-Oct-15 09:31N 58°56' E 011°10'0 0.0
2018-Oct-15 09:03N 58°56' E 011°10'0 0.2
2018-Oct-15 09:00N 58°56' E 011°10'510.8
2018-Oct-15 08:31N 58°59' E 011°01'715.4
2018-Oct-15 08:03N 59°01' E 010°49'115.5
2018-Oct-15 08:00N 59°02' E 010°47'815.8
2018-Oct-15 07:31N 59°01' E 010°32'715.1
2018-Oct-15 07:04N 59°01' E 010°19'115.5
2018-Oct-15 07:00N 59°01' E 010°18'612.3
2018-Oct-15 06:31N 59°07' E 010°14'0 0.7
2018-Oct-15 06:03N 59°08' E 010°14'0 0.0
2018-Oct-15 06:00N 59°08' E 010°14'1 2.9
2018-Oct-15 05:31N 59°06' E 010°14'0 0.0
2018-Oct-15 05:03N 59°06' E 010°14'0 0.0
2018-Oct-15 05:00N 59°06' E 010°14'0 0.0
2018-Oct-15 04:30N 59°06' E 010°14'0 0.0
2018-Oct-15 04:03N 59°06' E 010°14'0 0.1
2018-Oct-15 04:00N 59°06' E 010°14'0 0.0
2018-Oct-15 03:28N 59°06' E 010°14'0 0.0
2018-Oct-15 03:01N 59°06' E 010°14'0 0.0
2018-Oct-15 02:58N 59°06' E 010°14'0 0.0
2018-Oct-15 02:28N 59°06' E 010°14'0 0.0
2018-Oct-15 02:02N 59°06' E 010°14'0 0.0
2018-Oct-15 01:59N 59°06' E 010°14'0 0.0
2018-Oct-15 01:29N 59°06' E 010°14'0 0.0
2018-Oct-15 01:02N 59°06' E 010°14'0 0.1
2018-Oct-15 00:59N 59°06' E 010°14'0 0.0
2018-Oct-15 00:30N 59°06' E 010°14'0 0.0
2018-Oct-15 00:03N 59°06' E 010°14'0 0.1
2018-Oct-15 00:00N 59°06' E 010°14'0 0.0
2018-Oct-14 23:30N 59°06' E 010°14'0 0.0
2018-Oct-14 23:01N 59°06' E 010°14'0 0.0
2018-Oct-14 22:55N 59°06' E 010°14'0 0.0
2018-Oct-14 22:28N 59°06' E 010°14'0 0.0
2018-Oct-14 22:01N 59°06' E 010°14'0 0.1
2018-Oct-14 21:58N 59°06' E 010°14'0 0.0
2018-Oct-14 21:29N 59°06' E 010°14'0 0.0
2018-Oct-14 21:02N 59°06' E 010°14'0 0.1
2018-Oct-14 20:59N 59°06' E 010°14'0 0.0
2018-Oct-14 20:29N 59°06' E 010°14'0 0.0
2018-Oct-14 20:04N 59°06' E 010°14'0 0.0
2018-Oct-14 20:01N 59°06' E 010°14'1 1.6
2018-Oct-14 19:30N 59°07' E 010°14'1 1.4
2018-Oct-14 19:03N 59°08' E 010°14'0 0.3
2018-Oct-14 19:00N 59°08' E 010°14'611.4
2018-Oct-14 18:31N 59°02' E 010°16'714.8
2018-Oct-14 18:03N 59°00' E 010°28'115.4
2018-Oct-14 18:01N 59°00' E 010°30'715.0
2018-Oct-14 17:31N 59°02' E 010°44'714.8
2018-Oct-14 17:04N 59°00' E 010°57'115.2
2018-Oct-14 17:00N 59°00' E 010°58'714.1
2018-Oct-14 16:30N 58°56' E 011°09'0 1.0
2018-Oct-14 16:03N 58°56' E 011°10'0 0.0
2018-Oct-14 16:00N 58°56' E 011°10'4 7.0
2018-Oct-14 15:30N 58°57' E 011°04'715.1
2018-Oct-14 15:03N 59°01' E 010°53'114.6
2018-Oct-14 15:00N 59°01' E 010°52'1515.3
2018-Oct-14 14:03N 59°01' E 010°23'115.5
2018-Oct-14 14:00N 59°01' E 010°22'612.4
2018-Oct-14 13:30N 59°06' E 010°14'2 3.9
2018-Oct-14 13:04N 59°08' E 010°14'0 0.0
2018-Oct-14 13:01N 59°08' E 010°14'0 0.1
2018-Oct-14 12:30N 59°08' E 010°14'511.9
2018-Oct-14 12:04N 59°02' E 010°15'115.1
2018-Oct-14 12:01N 59°02' E 010°16'815.2
2018-Oct-14 11:31N 59°00' E 010°31'715.1
2018-Oct-14 11:03N 59°02' E 010°44'115.2
2018-Oct-14 11:01N 59°02' E 010°45'815.2
2018-Oct-14 10:30N 58°60' E 010°59'614.3
2018-Oct-14 10:04N 58°56' E 011°09'0 5.5
2018-Oct-14 10:00N 58°56' E 011°10'0 0.2
2018-Oct-14 09:30N 58°56' E 011°10'0 0.0
2018-Oct-14 09:04N 58°56' E 011°10'0 0.3
2018-Oct-14 09:01N 58°56' E 011°10'611.8
2018-Oct-14 08:30N 58°59' E 011°00'715.5
2018-Oct-14 08:04N 59°02' E 010°48'916.2
2018-Oct-14 07:30N 59°01' E 010°31'715.6
2018-Oct-14 07:03N 59°01' E 010°17'115.1
2018-Oct-14 07:00N 59°02' E 010°16'611.4
2018-Oct-14 06:30N 59°08' E 010°14'0 0.0
2018-Oct-14 06:03N 59°08' E 010°14'0 0.0
2018-Oct-14 06:00N 59°08' E 010°14'1 2.8
2018-Oct-14 05:30N 59°06' E 010°14'0 0.2
2018-Oct-14 05:01N 59°06' E 010°14'0 0.0
2018-Oct-14 04:58N 59°06' E 010°14'0 0.0
2018-Oct-14 04:28N 59°06' E 010°14'0 0.0
2018-Oct-14 04:02N 59°06' E 010°14'0 0.0
2018-Oct-14 03:59N 59°06' E 010°14'0 0.0
2018-Oct-14 03:29N 59°06' E 010°14'0 0.0
2018-Oct-14 03:02N 59°06' E 010°14'0 0.0
2018-Oct-14 02:59N 59°06' E 010°14'0 0.0
2018-Oct-14 02:30N 59°06' E 010°14'0 0.0
2018-Oct-14 02:03N 59°06' E 010°14'0 0.0
2018-Oct-14 02:00N 59°06' E 010°14'0 0.0
2018-Oct-14 01:30N 59°06' E 010°14'0 0.0
2018-Oct-14 01:01N 59°06' E 010°14'0 0.0
2018-Oct-14 00:58N 59°06' E 010°14'0 0.0
2018-Oct-14 00:28N 59°06' E 010°14'0 0.0
2018-Oct-14 00:01N 59°06' E 010°14'0 0.1
2018-Oct-13 23:58N 59°06' E 010°14'0 0.0
2018-Oct-13 23:29N 59°06' E 010°14'0 0.0
2018-Oct-13 23:02N 59°06' E 010°14'0 0.0
2018-Oct-13 22:59N 59°06' E 010°14'0 0.0
2018-Oct-13 22:29N 59°06' E 010°14'0 0.0
2018-Oct-13 22:03N 59°06' E 010°14'0 0.0
2018-Oct-13 22:00N 59°06' E 010°14'0 0.0
2018-Oct-13 21:30N 59°06' E 010°14'0 0.0
2018-Oct-13 21:03N 59°06' E 010°14'0 0.0
2018-Oct-13 21:00N 59°06' E 010°14'0 0.0
2018-Oct-13 20:28N 59°06' E 010°14'0 0.0
2018-Oct-13 19:58N 59°06' E 010°14'1 2.2
2018-Oct-13 19:30N 59°07' E 010°14'0 0.9
2018-Oct-13 19:03N 59°08' E 010°14'0 0.1
2018-Oct-13 19:01N 59°08' E 010°14'611.0
2018-Oct-13 18:30N 59°02' E 010°15'614.4
2018-Oct-13 18:04N 59°00' E 010°28'115.4
2018-Oct-13 18:01N 59°00' E 010°29'815.1
2018-Oct-13 17:31N 59°02' E 010°44'614.4
2018-Oct-13 17:04N 59°01' E 010°56'114.7
2018-Oct-13 17:01N 59°00' E 010°57'714.6
2018-Oct-13 16:30N 58°56' E 011°09'1 1.9
2018-Oct-13 16:04N 58°56' E 011°10'0 0.0
2018-Oct-13 16:01N 58°56' E 011°10'3 6.7
2018-Oct-13 15:31N 58°57' E 011°04'714.8
2018-Oct-13 15:04N 59°01' E 010°53'115.2
2018-Oct-13 15:00N 59°01' E 010°52'714.8
2018-Oct-13 14:31N 59°01' E 010°38'815.1
2018-Oct-13 14:01N 59°01' E 010°23'713.0
2018-Oct-13 13:30N 59°06' E 010°14'2 4.6
2018-Oct-13 13:04N 59°08' E 010°14'0 0.0
2018-Oct-13 13:00N 59°08' E 010°14'0 0.0
2018-Oct-13 12:31N 59°08' E 010°14'510.9
2018-Oct-13 12:04N 59°03' E 010°15'114.4
2018-Oct-13 12:01N 59°02' E 010°16'714.4
2018-Oct-13 11:31N 59°00' E 010°29'715.3
2018-Oct-13 11:04N 59°01' E 010°43'115.7
2018-Oct-13 11:01N 59°02' E 010°44'815.4
2018-Oct-13 10:31N 58°60' E 010°59'714.9
2018-Oct-13 10:03N 58°56' E 011°09'0 7.0
2018-Oct-13 10:00N 58°56' E 011°10'0 0.1
2018-Oct-13 09:31N 58°56' E 011°10'0 0.0
2018-Oct-13 09:03N 58°56' E 011°10'0 0.4
2018-Oct-13 09:01N 58°56' E 011°10'611.1
2018-Oct-13 08:30N 58°59' E 011°01'715.4
2018-Oct-13 08:04N 59°02' E 010°49'115.9
2018-Oct-13 08:01N 59°02' E 010°47'816.2
2018-Oct-13 07:31N 59°00' E 010°31'715.3
2018-Oct-13 07:04N 59°01' E 010°18'115.8
2018-Oct-13 07:01N 59°01' E 010°17'612.0
2018-Oct-13 06:31N 59°07' E 010°14'0 0.7
2018-Oct-13 06:03N 59°08' E 010°14'0 0.0
2018-Oct-13 06:01N 59°08' E 010°14'0 0.5
2018-Oct-13 05:30N 59°07' E 010°14'1 2.4
2018-Oct-13 05:01N 59°06' E 010°14'0 0.0
2018-Oct-13 04:58N 59°06' E 010°14'0 0.0
2018-Oct-13 04:29N 59°06' E 010°14'0 0.0
2018-Oct-13 04:02N 59°06' E 010°14'0 0.0
2018-Oct-13 03:59N 59°06' E 010°14'0 0.0
2018-Oct-13 03:29N 59°06' E 010°14'0 0.0
2018-Oct-13 03:02N 59°06' E 010°14'0 0.0
2018-Oct-13 03:00N 59°06' E 010°14'0 0.0
2018-Oct-13 02:30N 59°06' E 010°14'0 0.0
2018-Oct-13 02:03N 59°06' E 010°14'0 0.1
2018-Oct-13 02:00N 59°06' E 010°14'0 0.0
2018-Oct-13 01:30N 59°06' E 010°14'0 0.0
2018-Oct-13 01:01N 59°06' E 010°14'0 0.1
2018-Oct-13 00:58N 59°06' E 010°14'0 0.0
2018-Oct-13 00:28N 59°06' E 010°14'0 0.0
2018-Oct-13 00:01N 59°06' E 010°14'0 0.1
2018-Oct-12 23:59N 59°06' E 010°14'0 0.0
2018-Oct-12 23:29N 59°06' E 010°14'0 0.0
2018-Oct-12 23:02N 59°06' E 010°14'0 0.0
2018-Oct-12 22:59N 59°06' E 010°14'0 0.0
2018-Oct-12 22:30N 59°06' E 010°14'0 0.0
2018-Oct-12 22:03N 59°06' E 010°14'0 0.1
2018-Oct-12 22:00N 59°06' E 010°14'0 0.0
2018-Oct-12 21:30N 59°06' E 010°14'0 0.0
2018-Oct-12 21:03N 59°06' E 010°14'0 0.0
2018-Oct-12 21:01N 59°06' E 010°14'0 0.0
2018-Oct-12 20:28N 59°06' E 010°14'0 0.0
2018-Oct-12 20:03N 59°06' E 010°14'0 0.0
2018-Oct-12 20:01N 59°06' E 010°14'1 2.8
2018-Oct-12 19:31N 59°08' E 010°14'0 0.0
2018-Oct-12 19:04N 59°08' E 010°14'0 3.3
2018-Oct-12 19:00N 59°07' E 010°14'611.9
2018-Oct-12 18:30N 59°02' E 010°16'714.6
2018-Oct-12 18:04N 59°00' E 010°29'114.7
2018-Oct-12 18:01N 59°00' E 010°30'714.3
2018-Oct-12 17:30N 59°02' E 010°44'614.5
2018-Oct-12 17:04N 59°01' E 010°57'114.4
2018-Oct-12 17:01N 59°00' E 010°58'714.3
2018-Oct-12 16:30N 58°56' E 011°09'1 1.9
2018-Oct-12 16:04N 58°56' E 011°10'0 0.0
2018-Oct-12 16:01N 58°56' E 011°10'3 6.7
2018-Oct-12 15:31N 58°57' E 011°04'714.9
2018-Oct-12 15:04N 59°01' E 010°53'115.2
2018-Oct-12 15:01N 59°01' E 010°52'1415.2
2018-Oct-12 14:03N 59°01' E 010°24'114.7
2018-Oct-12 14:00N 59°01' E 010°23'612.7
2018-Oct-12 13:31N 59°06' E 010°14'2 4.5
2018-Oct-12 13:04N 59°08' E 010°14'0 0.0
2018-Oct-12 13:01N 59°08' E 010°14'0 0.1
2018-Oct-12 12:31N 59°08' E 010°14'510.1
2018-Oct-12 12:04N 59°03' E 010°15'113.6
2018-Oct-12 12:01N 59°02' E 010°15'714.7
2018-Oct-12 11:31N 59°00' E 010°29'715.4
2018-Oct-12 11:04N 59°02' E 010°42'115.6
2018-Oct-12 11:01N 59°02' E 010°44'815.1
2018-Oct-12 10:31N 58°60' E 010°58'714.8
2018-Oct-12 10:04N 58°56' E 011°08'111.2
2018-Oct-12 10:00N 58°56' E 011°09'0 0.7
2018-Oct-12 09:30N 58°56' E 011°10'0 0.0
2018-Oct-12 09:04N 58°56' E 011°10'0 0.2
2018-Oct-12 09:01N 58°56' E 011°10'510.9
2018-Oct-12 08:31N 58°59' E 011°01'715.8
2018-Oct-12 08:03N 59°02' E 010°48'115.4
2018-Oct-12 08:01N 59°02' E 010°47'816.0
2018-Oct-12 07:31N 59°01' E 010°32'715.2
2018-Oct-12 07:04N 59°01' E 010°18'114.8
2018-Oct-12 07:01N 59°01' E 010°17'612.3
2018-Oct-12 06:30N 59°07' E 010°14'0 0.4
2018-Oct-12 06:03N 59°08' E 010°14'0 0.1
2018-Oct-12 06:01N 59°08' E 010°14'0 0.9
2018-Oct-12 05:30N 59°07' E 010°14'1 2.0
2018-Oct-12 05:01N 59°06' E 010°14'0 0.0
2018-Oct-12 04:58N 59°06' E 010°14'0 0.0
2018-Oct-12 04:28N 59°06' E 010°14'0 0.0
2018-Oct-12 04:01N 59°06' E 010°14'0 0.0
2018-Oct-12 03:55N 59°06' E 010°14'0 0.0
2018-Oct-12 03:29N 59°06' E 010°14'0 0.0
2018-Oct-12 03:02N 59°06' E 010°14'0 0.0
2018-Oct-12 02:59N 59°06' E 010°14'0 0.0
2018-Oct-12 02:29N 59°06' E 010°14'0 0.0
2018-Oct-12 02:03N 59°06' E 010°14'0 0.0
2018-Oct-12 02:00N 59°06' E 010°14'0 0.0
2018-Oct-12 01:30N 59°06' E 010°14'0 0.0
2018-Oct-12 01:03N 59°06' E 010°14'0 0.0
2018-Oct-12 01:00N 59°06' E 010°14'0 0.0
2018-Oct-12 00:28N 59°06' E 010°14'0 0.0
2018-Oct-12 00:01N 59°06' E 010°14'0 0.0
2018-Oct-11 23:58N 59°06' E 010°14'0 0.0
2018-Oct-11 23:28N 59°06' E 010°14'0 0.0
2018-Oct-11 23:02N 59°06' E 010°14'0 0.0
2018-Oct-11 22:59N 59°06' E 010°14'0 0.0
2018-Oct-11 22:29N 59°06' E 010°14'0 0.0
2018-Oct-11 22:02N 59°06' E 010°14'0 0.1
2018-Oct-11 21:59N 59°06' E 010°14'0 0.0
2018-Oct-11 21:30N 59°06' E 010°14'0 0.0
2018-Oct-11 21:03N 59°06' E 010°14'0 0.1
2018-Oct-11 21:00N 59°06' E 010°14'0 0.0
2018-Oct-11 20:30N 59°06' E 010°14'0 0.0
2018-Oct-11 20:04N 59°06' E 010°14'0 0.0
2018-Oct-11 20:01N 59°06' E 010°14'1 2.0
2018-Oct-11 19:30N 59°07' E 010°14'0 1.0
2018-Oct-11 19:04N 59°08' E 010°14'0 1.9
2018-Oct-11 19:00N 59°07' E 010°14'611.7
2018-Oct-11 18:31N 59°02' E 010°16'714.6
2018-Oct-11 18:04N 59°00' E 010°28'114.7
2018-Oct-11 18:01N 59°00' E 010°30'815.2
2018-Oct-11 17:30N 59°02' E 010°44'715.4
2018-Oct-11 17:04N 59°00' E 010°58'115.7
2018-Oct-11 17:01N 58°60' E 010°59'713.8
2018-Oct-11 16:31N 58°56' E 011°10'0 0.2
2018-Oct-11 16:03N 58°56' E 011°10'0 0.1
2018-Oct-11 16:00N 58°56' E 011°10'5 9.3
2018-Oct-11 15:30N 58°58' E 011°02'714.9
2018-Oct-11 15:03N 59°01' E 010°51'113.9
2018-Oct-11 15:00N 59°01' E 010°49'714.1
2018-Oct-11 14:30N 59°01' E 010°36'1212.2
2018-Oct-11 13:30N 59°06' E 010°14'2 4.2
2018-Oct-11 13:03N 59°08' E 010°14'0 0.0
2018-Oct-11 13:00N 59°08' E 010°14'0 0.2
2018-Oct-11 12:30N 59°07' E 010°14'510.6
2018-Oct-11 12:04N 59°03' E 010°15'114.3
2018-Oct-11 12:01N 59°02' E 010°15'714.5
2018-Oct-11 11:30N 59°00' E 010°29'714.9
2018-Oct-11 11:03N 59°01' E 010°42'115.2
2018-Oct-11 11:00N 59°01' E 010°44'714.6
2018-Oct-11 10:31N 58°60' E 010°57'714.7
2018-Oct-11 10:03N 58°56' E 011°08'113.2
2018-Oct-11 10:00N 58°56' E 011°09'1 1.4
2018-Oct-11 09:31N 58°56' E 011°10'0 0.0
2018-Oct-11 09:04N 58°56' E 011°10'0 0.6
2018-Oct-11 09:00N 58°56' E 011°10'611.6
2018-Oct-11 08:31N 58°59' E 011°01'715.1
2018-Oct-11 08:03N 59°02' E 010°48'114.9
2018-Oct-11 08:00N 59°02' E 010°47'815.1
2018-Oct-11 07:30N 59°00' E 010°33'715.2
2018-Oct-11 07:03N 59°01' E 010°19'115.1
2018-Oct-11 07:00N 59°01' E 010°18'612.7
2018-Oct-11 06:30N 59°07' E 010°14'0 0.5
2018-Oct-11 06:03N 59°08' E 010°14'0 0.0
2018-Oct-11 06:00N 59°08' E 010°14'1 2.8
2018-Oct-11 05:30N 59°06' E 010°14'0 0.1
2018-Oct-11 05:03N 59°06' E 010°14'0 0.0
2018-Oct-11 05:00N 59°06' E 010°14'0 0.0
2018-Oct-11 04:31N 59°06' E 010°14'0 0.0
2018-Oct-11 04:03N 59°06' E 010°14'0 0.1
2018-Oct-11 04:00N 59°06' E 010°14'0 0.0
2018-Oct-11 03:30N 59°06' E 010°14'0 0.0
2018-Oct-11 03:03N 59°06' E 010°14'0 0.0
2018-Oct-11 03:00N 59°06' E 010°14'0 0.0
2018-Oct-11 02:31N 59°06' E 010°14'0 0.0
2018-Oct-11 02:04N 59°06' E 010°14'0 0.0
2018-Oct-11 02:01N 59°06' E 010°14'0 0.0
2018-Oct-11 01:30N 59°06' E 010°14'0 0.0
2018-Oct-11 01:03N 59°06' E 010°14'0 0.0
2018-Oct-11 01:00N 59°06' E 010°14'0 0.0
2018-Oct-11 00:30N 59°06' E 010°14'0 0.0
2018-Oct-11 00:03N 59°06' E 010°14'0 0.1
2018-Oct-11 00:00N 59°06' E 010°14'0 0.0
2018-Oct-10 23:31N 59°06' E 010°14'0 0.0
2018-Oct-10 23:03N 59°06' E 010°14'0 0.0
2018-Oct-10 23:00N 59°06' E 010°14'0 0.0
2018-Oct-10 22:31N 59°06' E 010°14'0 0.0
2018-Oct-10 22:03N 59°06' E 010°14'0 0.0
2018-Oct-10 22:00N 59°06' E 010°14'0 0.0
2018-Oct-10 21:30N 59°06' E 010°14'0 0.0
2018-Oct-10 21:04N 59°06' E 010°14'0 0.0
2018-Oct-10 21:01N 59°06' E 010°14'0 0.0
2018-Oct-10 20:30N 59°06' E 010°14'0 0.0
2018-Oct-10 20:04N 59°06' E 010°14'0 0.0
2018-Oct-10 20:01N 59°06' E 010°14'1 2.4
2018-Oct-10 19:30N 59°07' E 010°14'0 0.5
2018-Oct-10 19:03N 59°08' E 010°14'0 2.6
2018-Oct-10 19:00N 59°07' E 010°14'611.4
2018-Oct-10 18:30N 59°02' E 010°16'714.6
2018-Oct-10 18:03N 59°01' E 010°28'114.8
2018-Oct-10 18:01N 59°00' E 010°30'714.4
2018-Oct-10 17:30N 59°02' E 010°44'714.5
2018-Oct-10 17:03N 59°00' E 010°56'112.3
2018-Oct-10 17:00N 59°00' E 010°57'714.5
2018-Oct-10 16:30N 58°56' E 011°08'1 2.2
2018-Oct-10 16:03N 58°56' E 011°10'0 0.0
2018-Oct-10 16:00N 58°56' E 011°10'4 7.8
2018-Oct-10 15:30N 58°57' E 011°03'614.3
2018-Oct-10 15:04N 59°01' E 010°53'114.9
2018-Oct-10 15:00N 59°01' E 010°51'1415.1
2018-Oct-10 14:04N 59°01' E 010°23'115.8
2018-Oct-10 14:01N 59°01' E 010°22'  
Track history (hours):
 
Tides and Currents Weather Stations Pressure Air Temp Water Temp Dewpoint Dewpoint Depression Visibility Wind Speed Wind Dir Waves Ship Positions

DucheSS Of Scandinavia

Operator: DFDS A/S

Last reported at 2018-Oct-20 13:30 UTC. Time now 2018-Oct-20 13:37 UTC.
Position N 59°06' E 010°14'.

Length 134 m; draft 5.4 m.

Type: Passenger vessel. MMSI: 219002929.

Date/timePositionNaut miles runAvg speedWind from/ knotsBaromVisibWave heightAir tempDewpointWater temp
2018-Oct-20 13:30N 59°06' E 010°14'1 3.3
2018-Oct-20 13:03N 59°08' E 010°14'0 0.0
2018-Oct-20 13:01N 59°08' E 010°14'0 0.4
2018-Oct-20 12:30N 59°07' E 010°14'511.6
2018-Oct-20 12:04N 59°02' E 010°16'113.8
2018-Oct-20 12:01N 59°02' E 010°16'714.6
2018-Oct-20 11:31N 59°00' E 010°30'715.3
2018-Oct-20 11:03N 59°02' E 010°43'115.2
2018-Oct-20 11:00N 59°02' E 010°45'714.8
2018-Oct-20 10:31N 58°60' E 010°58'714.6
2018-Oct-20 10:03N 58°56' E 011°09'0 9.9
2018-Oct-20 10:01N 58°56' E 011°09'0 0.8
2018-Oct-20 09:31N 58°56' E 011°10'0 0.0
2018-Oct-20 09:04N 58°56' E 011°10'0 0.2
2018-Oct-20 09:00N 58°56' E 011°10'611.8
2018-Oct-20 08:30N 58°59' E 011°00'716.3
2018-Oct-20 08:03N 59°02' E 010°47'116.6
2018-Oct-20 08:00N 59°02' E 010°45'816.0
2018-Oct-20 07:30N 59°00' E 010°30'715.8
2018-Oct-20 07:04N 59°02' E 010°17'115.1
2018-Oct-20 07:01N 59°02' E 010°16'611.1
2018-Oct-20 06:31N 59°07' E 010°14'0 0.2
2018-Oct-20 06:03N 59°08' E 010°14'0 0.0
2018-Oct-20 06:01N 59°08' E 010°14'0 0.5
2018-Oct-20 05:31N 59°07' E 010°14'1 2.6
2018-Oct-20 05:03N 59°06' E 010°14'0 0.0
2018-Oct-20 04:59N 59°06' E 010°14'0 0.0
2018-Oct-20 04:30N 59°06' E 010°14'0 0.0
2018-Oct-20 04:03N 59°06' E 010°14'0 0.0
2018-Oct-20 04:00N 59°06' E 010°14'0 0.0
2018-Oct-20 03:30N 59°06' E 010°14'0 0.0
2018-Oct-20 03:01N 59°06' E 010°14'0 0.1
2018-Oct-20 02:58N 59°06' E 010°14'0 0.0
2018-Oct-20 02:28N 59°06' E 010°14'0 0.0
2018-Oct-20 02:01N 59°06' E 010°14'0 0.1
2018-Oct-20 01:58N 59°06' E 010°14'0 0.0
2018-Oct-20 01:29N 59°06' E 010°14'0 0.0
2018-Oct-20 01:02N 59°06' E 010°14'0 0.1
2018-Oct-20 00:59N 59°06' E 010°14'0 0.0
2018-Oct-20 00:29N 59°06' E 010°14'0 0.0
2018-Oct-20 00:03N 59°06' E 010°14'0 0.1
2018-Oct-20 00:00N 59°06' E 010°14'0 0.0
2018-Oct-19 23:30N 59°06' E 010°14'0 0.0
2018-Oct-19 23:03N 59°06' E 010°14'0 0.1
2018-Oct-19 23:00N 59°06' E 010°14'0 0.0
2018-Oct-19 22:28N 59°06' E 010°14'0 0.0
2018-Oct-19 21:58N 59°06' E 010°14'0 0.0
2018-Oct-19 21:29N 59°06' E 010°14'0 0.0
2018-Oct-19 21:02N 59°06' E 010°14'0 0.0
2018-Oct-19 20:59N 59°06' E 010°14'0 0.0
2018-Oct-19 20:29N 59°06' E 010°14'0 0.0
2018-Oct-19 20:02N 59°06' E 010°14'0 0.2
2018-Oct-19 20:01N 59°06' E 010°14'1 2.9
2018-Oct-19 19:30N 59°08' E 010°14'0 0.0
2018-Oct-19 19:04N 59°08' E 010°14'0 2.9
2018-Oct-19 19:00N 59°07' E 010°14'611.8
2018-Oct-19 18:31N 59°02' E 010°16'715.0
2018-Oct-19 18:04N 59°01' E 010°29'115.2
2018-Oct-19 18:01N 59°01' E 010°30'815.2
2018-Oct-19 17:30N 59°02' E 010°45'715.6
2018-Oct-19 17:03N 58°60' E 010°58'115.6
2018-Oct-19 17:01N 58°60' E 010°60'612.9
2018-Oct-19 16:30N 58°56' E 011°10'0 0.1
2018-Oct-19 16:04N 58°56' E 011°10'0 0.0
2018-Oct-19 16:01N 58°56' E 011°10'5 9.1
2018-Oct-19 15:31N 58°58' E 011°02'715.5
2018-Oct-19 15:04N 59°01' E 010°50'115.9
2018-Oct-19 15:01N 59°01' E 010°49'815.8
2018-Oct-19 14:31N 59°01' E 010°34'1212.0
2018-Oct-19 13:30N 59°07' E 010°14'1 1.5
2018-Oct-19 13:04N 59°08' E 010°14'0 0.0
2018-Oct-19 13:01N 59°08' E 010°14'0 0.1
2018-Oct-19 12:31N 59°08' E 010°14'510.8
2018-Oct-19 12:03N 59°03' E 010°15'114.4
2018-Oct-19 12:00N 59°02' E 010°16'714.1
2018-Oct-19 11:31N 59°00' E 010°29'714.8
2018-Oct-19 11:03N 59°01' E 010°42'114.5
2018-Oct-19 11:00N 59°02' E 010°43'714.2
2018-Oct-19 10:31N 59°00' E 010°57'715.1
2018-Oct-19 10:04N 58°56' E 011°07'114.1
2018-Oct-19 10:00N 58°56' E 011°09'1 1.7
2018-Oct-19 09:31N 58°56' E 011°10'0 0.0
2018-Oct-19 09:04N 58°56' E 011°10'0 0.3
2018-Oct-19 09:00N 58°56' E 011°10'611.4
2018-Oct-19 08:30N 58°59' E 011°01'715.9
2018-Oct-19 08:03N 59°02' E 010°48'115.9
2018-Oct-19 08:00N 59°02' E 010°46'816.0
2018-Oct-19 07:31N 59°00' E 010°31'715.5
2018-Oct-19 07:03N 59°01' E 010°18'115.3
2018-Oct-19 07:01N 59°02' E 010°16'611.7
2018-Oct-19 06:30N 59°07' E 010°14'0 0.4
2018-Oct-19 06:03N 59°08' E 010°14'0 0.1
2018-Oct-19 06:01N 59°08' E 010°14'0 0.4
2018-Oct-19 05:30N 59°07' E 010°14'1 2.7
2018-Oct-19 05:03N 59°06' E 010°14'0 0.1
2018-Oct-19 05:00N 59°06' E 010°14'0 0.0
2018-Oct-19 04:30N 59°06' E 010°14'0 0.0
2018-Oct-19 04:01N 59°06' E 010°14'0 0.0
2018-Oct-19 03:58N 59°06' E 010°14'0 0.0
2018-Oct-19 03:28N 59°06' E 010°14'0 0.0
2018-Oct-19 03:01N 59°06' E 010°14'0 0.1
2018-Oct-19 02:58N 59°06' E 010°14'0 0.0
2018-Oct-19 02:29N 59°06' E 010°14'0 0.0
2018-Oct-19 02:02N 59°06' E 010°14'0 0.1
2018-Oct-19 01:59N 59°06' E 010°14'0 0.0
2018-Oct-19 01:29N 59°06' E 010°14'0 0.0
2018-Oct-19 01:03N 59°06' E 010°14'0 0.1
2018-Oct-19 01:00N 59°06' E 010°14'0 0.0
2018-Oct-19 00:30N 59°06' E 010°14'0 0.0
2018-Oct-19 00:03N 59°06' E 010°14'0 0.1
2018-Oct-19 00:00N 59°06' E 010°14'0 0.0
2018-Oct-18 23:28N 59°06' E 010°14'0 0.0
2018-Oct-18 23:01N 59°06' E 010°14'0 0.0
2018-Oct-18 22:58N 59°06' E 010°14'0 0.0
2018-Oct-18 22:28N 59°06' E 010°14'0 0.0
2018-Oct-18 22:02N 59°06' E 010°14'0 0.0
2018-Oct-18 21:59N 59°06' E 010°14'0 0.0
2018-Oct-18 21:29N 59°06' E 010°14'0 0.0
2018-Oct-18 21:02N 59°06' E 010°14'0 0.1
2018-Oct-18 20:59N 59°06' E 010°14'0 0.0
2018-Oct-18 20:30N 59°06' E 010°14'0 0.0
2018-Oct-18 20:04N 59°06' E 010°14'0 0.0
2018-Oct-18 20:01N 59°06' E 010°14'1 2.5
2018-Oct-18 19:31N 59°07' E 010°14'0 0.3
2018-Oct-18 19:03N 59°08' E 010°14'0 3.1
2018-Oct-18 19:00N 59°07' E 010°14'611.4
2018-Oct-18 18:31N 59°02' E 010°16'715.4
2018-Oct-18 18:04N 59°00' E 010°29'115.6
2018-Oct-18 18:01N 59°00' E 010°31'815.7
2018-Oct-18 17:31N 59°02' E 010°46'715.4
2018-Oct-18 17:04N 58°60' E 010°59'115.3
2018-Oct-18 17:01N 58°59' E 011°00'612.4
2018-Oct-18 16:30N 58°56' E 011°10'0 0.1
2018-Oct-18 16:03N 58°56' E 011°10'0 0.1
2018-Oct-18 16:00N 58°56' E 011°10'3 6.9
2018-Oct-18 15:31N 58°57' E 011°04'714.9
2018-Oct-18 15:03N 59°01' E 010°53'115.7
2018-Oct-18 15:01N 59°01' E 010°52'815.4
2018-Oct-18 14:30N 59°01' E 010°37'1312.8
2018-Oct-18 13:31N 59°06' E 010°14'2 3.5
2018-Oct-18 13:04N 59°08' E 010°14'0 0.0
2018-Oct-18 13:00N 59°08' E 010°14'0 0.3
2018-Oct-18 12:30N 59°07' E 010°14'511.4
2018-Oct-18 12:04N 59°02' E 010°15'114.8
2018-Oct-18 12:01N 59°02' E 010°16'713.9
2018-Oct-18 11:31N 59°00' E 010°29'714.9
2018-Oct-18 11:04N 59°01' E 010°42'115.5
2018-Oct-18 11:01N 59°02' E 010°44'714.7
2018-Oct-18 10:31N 59°00' E 010°58'714.5
2018-Oct-18 10:03N 58°56' E 011°08'012.5
2018-Oct-18 10:00N 58°56' E 011°09'1 1.4
2018-Oct-18 09:30N 58°56' E 011°10'0 0.0
2018-Oct-18 09:04N 58°56' E 011°10'0 0.1
2018-Oct-18 09:01N 58°56' E 011°10'510.9
2018-Oct-18 08:31N 58°59' E 011°01'716.0
2018-Oct-18 08:03N 59°02' E 010°48'116.0
2018-Oct-18 08:00N 59°02' E 010°47'815.6
2018-Oct-18 07:31N 59°00' E 010°32'715.2
2018-Oct-18 07:04N 59°01' E 010°18'115.4
2018-Oct-18 07:01N 59°01' E 010°17'612.4
2018-Oct-18 06:31N 59°07' E 010°14'0 0.4
2018-Oct-18 06:04N 59°08' E 010°14'0 0.0
2018-Oct-18 06:01N 59°08' E 010°14'1 2.9
2018-Oct-18 05:30N 59°06' E 010°14'0 0.1
2018-Oct-18 05:02N 59°06' E 010°14'0 0.0
2018-Oct-18 04:59N 59°06' E 010°14'0 0.0
2018-Oct-18 04:30N 59°06' E 010°14'0 0.0
2018-Oct-18 04:03N 59°06' E 010°14'0 0.1
2018-Oct-18 04:00N 59°06' E 010°14'0 0.0
2018-Oct-18 03:30N 59°06' E 010°14'0 0.0
2018-Oct-18 03:01N 59°06' E 010°14'0 0.0
2018-Oct-18 02:58N 59°06' E 010°14'0 0.0
2018-Oct-18 02:28N 59°06' E 010°14'0 0.0
2018-Oct-18 02:01N 59°06' E 010°14'0 0.0
2018-Oct-18 01:59N 59°06' E 010°14'0 0.0
2018-Oct-18 01:29N 59°06' E 010°14'0 0.0
2018-Oct-18 01:02N 59°06' E 010°14'0 0.0
2018-Oct-18 00:59N 59°06' E 010°14'0 0.0
2018-Oct-18 00:30N 59°06' E 010°14'0 0.0
2018-Oct-18 00:03N 59°06' E 010°14'0 0.1
2018-Oct-18 00:00N 59°06' E 010°14'0 0.0
2018-Oct-17 23:30N 59°06' E 010°14'0 0.0
2018-Oct-17 23:03N 59°06' E 010°14'0 0.1
2018-Oct-17 23:01N 59°06' E 010°14'0 0.0
2018-Oct-17 22:28N 59°06' E 010°14'0 0.0
2018-Oct-17 22:01N 59°06' E 010°14'0 0.1
2018-Oct-17 21:58N 59°06' E 010°14'0 0.0
2018-Oct-17 21:29N 59°06' E 010°14'0 0.0
2018-Oct-17 21:02N 59°06' E 010°14'0 0.0
2018-Oct-17 20:59N 59°06' E 010°14'0 0.0
2018-Oct-17 20:29N 59°06' E 010°14'0 0.0
2018-Oct-17 20:04N 59°06' E 010°14'0 0.0
2018-Oct-17 20:01N 59°06' E 010°14'1 2.9
2018-Oct-17 19:31N 59°08' E 010°14'0 0.1
2018-Oct-17 19:04N 59°08' E 010°14'0 2.8
2018-Oct-17 19:00N 59°07' E 010°14'612.1
2018-Oct-17 18:30N 59°02' E 010°16'714.6
2018-Oct-17 18:04N 59°00' E 010°29'114.5
2018-Oct-17 18:01N 59°00' E 010°30'714.8
2018-Oct-17 17:31N 59°02' E 010°45'714.8
2018-Oct-17 17:04N 59°00' E 010°57'114.9
2018-Oct-17 17:00N 58°60' E 010°58'713.8
2018-Oct-17 16:30N 58°56' E 011°09'0 1.1
2018-Oct-17 16:04N 58°56' E 011°10'0 0.0
2018-Oct-17 16:00N 58°56' E 011°10'3 6.9
2018-Oct-17 15:31N 58°57' E 011°04'714.8
2018-Oct-17 15:03N 59°01' E 010°53'115.9
2018-Oct-17 15:01N 59°01' E 010°52'815.3
2018-Oct-17 14:30N 59°01' E 010°37'1312.8
2018-Oct-17 13:31N 59°06' E 010°14'2 3.7
2018-Oct-17 13:04N 59°08' E 010°14'0 0.0
2018-Oct-17 13:01N 59°08' E 010°14'0 0.1
2018-Oct-17 12:31N 59°08' E 010°14'511.5
2018-Oct-17 12:03N 59°02' E 010°15'114.6
2018-Oct-17 12:01N 59°02' E 010°16'714.5
2018-Oct-17 11:31N 59°00' E 010°30'714.8
2018-Oct-17 11:04N 59°02' E 010°43'115.0
2018-Oct-17 11:01N 59°02' E 010°44'714.5
2018-Oct-17 10:31N 59°00' E 010°58'714.4
2018-Oct-17 10:03N 58°56' E 011°08'113.5
2018-Oct-17 10:00N 58°56' E 011°09'1 1.6
2018-Oct-17 09:30N 58°56' E 011°10'0 0.0
2018-Oct-17 09:04N 58°56' E 011°10'0 0.2
2018-Oct-17 09:00N 58°56' E 011°10'510.2
2018-Oct-17 08:31N 58°58' E 011°02'715.5
2018-Oct-17 08:03N 59°01' E 010°49'116.0
2018-Oct-17 08:01N 59°02' E 010°48'815.6
2018-Oct-17 07:30N 59°01' E 010°33'714.9
2018-Oct-17 07:04N 59°01' E 010°20'115.8
2018-Oct-17 07:01N 59°01' E 010°18'612.4
2018-Oct-17 06:30N 59°07' E 010°14'0 1.0
2018-Oct-17 06:04N 59°08' E 010°14'0 0.0
2018-Oct-17 06:01N 59°08' E 010°14'1 2.8
2018-Oct-17 05:30N 59°06' E 010°14'0 0.2
2018-Oct-17 04:59N 59°06' E 010°14'0 0.0
2018-Oct-17 04:29N 59°06' E 010°14'0 0.0
2018-Oct-17 04:02N 59°06' E 010°14'0 0.0
2018-Oct-17 03:59N 59°06' E 010°14'0 0.0
2018-Oct-17 03:30N 59°06' E 010°14'0 0.0
2018-Oct-17 03:03N 59°06' E 010°14'0 0.0
2018-Oct-17 03:00N 59°06' E 010°14'0 0.0
2018-Oct-17 02:30N 59°06' E 010°14'0 0.0
2018-Oct-17 02:01N 59°06' E 010°14'0 0.0
2018-Oct-17 01:58N 59°06' E 010°14'0 0.0
2018-Oct-17 01:28N 59°06' E 010°14'0 0.0
2018-Oct-17 01:01N 59°06' E 010°14'0 0.0
2018-Oct-17 00:58N 59°06' E 010°14'0 0.0
2018-Oct-17 00:29N 59°06' E 010°14'0 0.0
2018-Oct-17 00:02N 59°06' E 010°14'0 0.0
2018-Oct-16 23:59N 59°06' E 010°14'0 0.0
2018-Oct-16 23:29N 59°06' E 010°14'0 0.0
2018-Oct-16 23:03N 59°06' E 010°14'0 0.0
2018-Oct-16 23:00N 59°06' E 010°14'0 0.0
2018-Oct-16 22:30N 59°06' E 010°14'0 0.0
2018-Oct-16 22:03N 59°06' E 010°14'0 0.0
2018-Oct-16 22:00N 59°06' E 010°14'0 0.0
2018-Oct-16 21:28N 59°06' E 010°14'0 0.0
2018-Oct-16 21:01N 59°06' E 010°14'0 0.1
2018-Oct-16 20:58N 59°06' E 010°14'0 0.0
2018-Oct-16 20:28N 59°06' E 010°14'0 0.0
2018-Oct-16 20:04N 59°06' E 010°14'0 0.0
2018-Oct-16 20:01N 59°06' E 010°14'1 2.2
2018-Oct-16 19:31N 59°07' E 010°14'0 0.7
2018-Oct-16 19:03N 59°08' E 010°14'0 2.4
2018-Oct-16 19:00N 59°07' E 010°14'611.3
2018-Oct-16 18:31N 59°02' E 010°16'613.8
2018-Oct-16 18:04N 59°00' E 010°28'114.4
2018-Oct-16 18:01N 59°00' E 010°29'815.1
2018-Oct-16 17:31N 59°02' E 010°43'714.7
2018-Oct-16 17:04N 59°00' E 010°56'115.2
2018-Oct-16 17:01N 59°00' E 010°57'714.4
2018-Oct-16 16:30N 58°56' E 011°09'1 1.9
2018-Oct-16 16:04N 58°56' E 011°10'0 0.0
2018-Oct-16 16:01N 58°56' E 011°10'3 6.5
2018-Oct-16 15:31N 58°57' E 011°04'714.9
2018-Oct-16 15:04N 59°01' E 010°54'115.4
2018-Oct-16 15:01N 59°01' E 010°52'715.0
2018-Oct-16 14:31N 59°01' E 010°38'815.1
2018-Oct-16 14:00N 59°01' E 010°23'612.5
2018-Oct-16 13:31N 59°05' E 010°14'2 5.3
2018-Oct-16 13:04N 59°08' E 010°14'0 0.1
2018-Oct-16 13:01N 59°08' E 010°14'0 0.2
2018-Oct-16 12:30N 59°07' E 010°14'511.1
2018-Oct-16 12:04N 59°03' E 010°15'114.1
2018-Oct-16 12:01N 59°02' E 010°16'714.7
2018-Oct-16 11:31N 59°00' E 010°30'714.8
2018-Oct-16 11:04N 59°02' E 010°42'114.6
2018-Oct-16 11:01N 59°02' E 010°44'714.2
2018-Oct-16 10:31N 59°00' E 010°57'714.8
2018-Oct-16 10:03N 58°56' E 011°07'114.4
2018-Oct-16 10:00N 58°56' E 011°09'1 1.6
2018-Oct-16 09:30N 58°56' E 011°10'0 0.0
2018-Oct-16 09:03N 58°56' E 011°10'0 0.2
2018-Oct-16 09:01N 58°56' E 011°10'510.9
2018-Oct-16 08:31N 58°59' E 011°01'714.5
2018-Oct-16 08:04N 59°01' E 010°49'115.1
2018-Oct-16 08:01N 59°02' E 010°48'815.4
2018-Oct-16 07:31N 59°01' E 010°33'714.8
2018-Oct-16 07:04N 59°01' E 010°20'115.2
2018-Oct-16 07:01N 59°01' E 010°19'612.2
2018-Oct-16 06:31N 59°07' E 010°14'1 1.6
2018-Oct-16 06:03N 59°08' E 010°14'0 0.0
2018-Oct-16 06:01N 59°08' E 010°14'1 2.8
2018-Oct-16 05:30N 59°06' E 010°14'0 0.1
2018-Oct-16 05:03N 59°06' E 010°14'0 0.1
2018-Oct-16 05:00N 59°06' E 010°14'0 0.0
2018-Oct-16 04:30N 59°06' E 010°14'0 0.0
2018-Oct-16 04:01N 59°06' E 010°14'0 0.1
2018-Oct-16 03:55N 59°06' E 010°14'0 0.0
2018-Oct-16 03:28N 59°06' E 010°14'0 0.0
2018-Oct-16 03:01N 59°06' E 010°14'0 0.0
2018-Oct-16 02:58N 59°06' E 010°14'0 0.0
2018-Oct-16 02:29N 59°06' E 010°14'0 0.0
2018-Oct-16 02:02N 59°06' E 010°14'0 0.0
2018-Oct-16 01:59N 59°06' E 010°14'0 0.0
2018-Oct-16 01:29N 59°06' E 010°14'0 0.0
2018-Oct-16 01:03N 59°06' E 010°14'0 0.1
2018-Oct-16 01:00N 59°06' E 010°14'0 0.0
2018-Oct-16 00:30N 59°06' E 010°14'0 0.0
2018-Oct-16 00:03N 59°06' E 010°14'0 0.1
2018-Oct-16 00:00N 59°06' E 010°14'0 0.0
2018-Oct-15 23:25N 59°06' E 010°14'0 0.0
2018-Oct-15 23:01N 59°06' E 010°14'0 0.0
2018-Oct-15 22:58N 59°06' E 010°14'0 0.0
2018-Oct-15 22:28N 59°06' E 010°14'0 0.0
2018-Oct-15 22:02N 59°06' E 010°14'0 0.0
2018-Oct-15 21:59N 59°06' E 010°14'0 0.0
2018-Oct-15 21:29N 59°06' E 010°14'0 0.0
2018-Oct-15 21:02N 59°06' E 010°14'0 0.0
2018-Oct-15 20:59N 59°06' E 010°14'0 0.0
2018-Oct-15 20:27N 59°06' E 010°14'0 0.0
2018-Oct-15 20:03N 59°06' E 010°14'0 0.1
2018-Oct-15 20:00N 59°06' E 010°14'0 0.1
2018-Oct-15 19:30N 59°06' E 010°14'1 3.1
2018-Oct-15 19:04N 59°08' E 010°14'0 0.1
2018-Oct-15 19:00N 59°08' E 010°14'510.1
2018-Oct-15 18:31N 59°03' E 010°15'613.2
2018-Oct-15 18:04N 59°00' E 010°26'114.8
2018-Oct-15 18:00N 59°00' E 010°28'815.7
2018-Oct-15 17:31N 59°02' E 010°43'716.3
2018-Oct-15 17:03N 59°00' E 010°57'114.7
2018-Oct-15 17:00N 59°00' E 010°58'714.1
2018-Oct-15 16:30N 58°56' E 011°08'1 2.0
2018-Oct-15 16:04N 58°56' E 011°10'0 0.0
2018-Oct-15 16:01N 58°56' E 011°10'3 6.5
2018-Oct-15 15:31N 58°57' E 011°04'715.3
2018-Oct-15 15:03N 59°01' E 010°53'115.7
2018-Oct-15 15:00N 59°01' E 010°52'1415.1
2018-Oct-15 14:03N 59°01' E 010°24'115.5
2018-Oct-15 14:00N 59°01' E 010°22'612.8
2018-Oct-15 13:30N 59°06' E 010°14'2 3.9
2018-Oct-15 13:04N 59°08' E 010°14'0 0.0
2018-Oct-15 13:01N 59°08' E 010°14'0 0.1
2018-Oct-15 12:31N 59°08' E 010°14'511.1
2018-Oct-15 12:03N 59°03' E 010°15'114.9
2018-Oct-15 12:00N 59°02' E 010°16'714.2
2018-Oct-15 11:30N 59°01' E 010°29'714.7
2018-Oct-15 11:03N 59°02' E 010°42'114.7
2018-Oct-15 11:01N 59°02' E 010°44'714.6
2018-Oct-15 10:30N 59°00' E 010°57'714.8
2018-Oct-15 10:03N 58°56' E 011°08'112.1
2018-Oct-15 10:00N 58°56' E 011°09'1 1.7
2018-Oct-15 09:31N 58°56' E 011°10'0 0.0
2018-Oct-15 09:03N 58°56' E 011°10'0 0.2
2018-Oct-15 09:00N 58°56' E 011°10'510.8
2018-Oct-15 08:31N 58°59' E 011°01'715.4
2018-Oct-15 08:03N 59°01' E 010°49'115.5
2018-Oct-15 08:00N 59°02' E 010°47'815.8
2018-Oct-15 07:31N 59°01' E 010°32'715.1
2018-Oct-15 07:04N 59°01' E 010°19'115.5
2018-Oct-15 07:00N 59°01' E 010°18'612.3
2018-Oct-15 06:31N 59°07' E 010°14'0 0.7
2018-Oct-15 06:03N 59°08' E 010°14'0 0.0
2018-Oct-15 06:00N 59°08' E 010°14'1 2.9
2018-Oct-15 05:31N 59°06' E 010°14'0 0.0
2018-Oct-15 05:03N 59°06' E 010°14'0 0.0
2018-Oct-15 05:00N 59°06' E 010°14'0 0.0
2018-Oct-15 04:30N 59°06' E 010°14'0 0.0
2018-Oct-15 04:03N 59°06' E 010°14'0 0.1
2018-Oct-15 04:00N 59°06' E 010°14'0 0.0
2018-Oct-15 03:28N 59°06' E 010°14'0 0.0
2018-Oct-15 03:01N 59°06' E 010°14'0 0.0
2018-Oct-15 02:58N 59°06' E 010°14'0 0.0
2018-Oct-15 02:28N 59°06' E 010°14'0 0.0
2018-Oct-15 02:02N 59°06' E 010°14'0 0.0
2018-Oct-15 01:59N 59°06' E 010°14'0 0.0
2018-Oct-15 01:29N 59°06' E 010°14'0 0.0
2018-Oct-15 01:02N 59°06' E 010°14'0 0.1
2018-Oct-15 00:59N 59°06' E 010°14'0 0.0
2018-Oct-15 00:30N 59°06' E 010°14'0 0.0
2018-Oct-15 00:03N 59°06' E 010°14'0 0.1
2018-Oct-15 00:00N 59°06' E 010°14'0 0.0
2018-Oct-14 23:30N 59°06' E 010°14'0 0.0
2018-Oct-14 23:01N 59°06' E 010°14'0 0.0
2018-Oct-14 22:55N 59°06' E 010°14'0 0.0
2018-Oct-14 22:28N 59°06' E 010°14'0 0.0
2018-Oct-14 22:01N 59°06' E 010°14'0 0.1
2018-Oct-14 21:58N 59°06' E 010°14'0 0.0
2018-Oct-14 21:29N 59°06' E 010°14'0 0.0
2018-Oct-14 21:02N 59°06' E 010°14'0 0.1
2018-Oct-14 20:59N 59°06' E 010°14'0 0.0
2018-Oct-14 20:29N 59°06' E 010°14'0 0.0
2018-Oct-14 20:04N 59°06' E 010°14'0 0.0
2018-Oct-14 20:01N 59°06' E 010°14'1 1.6
2018-Oct-14 19:30N 59°07' E 010°14'1 1.4
2018-Oct-14 19:03N 59°08' E 010°14'0 0.3
2018-Oct-14 19:00N 59°08' E 010°14'611.4
2018-Oct-14 18:31N 59°02' E 010°16'714.8
2018-Oct-14 18:03N 59°00' E 010°28'115.4
2018-Oct-14 18:01N 59°00' E 010°30'715.0
2018-Oct-14 17:31N 59°02' E 010°44'714.8
2018-Oct-14 17:04N 59°00' E 010°57'115.2
2018-Oct-14 17:00N 59°00' E 010°58'714.1
2018-Oct-14 16:30N 58°56' E 011°09'0 1.0
2018-Oct-14 16:03N 58°56' E 011°10'0 0.0
2018-Oct-14 16:00N 58°56' E 011°10'4 7.0
2018-Oct-14 15:30N 58°57' E 011°04'715.1
2018-Oct-14 15:03N 59°01' E 010°53'114.6
2018-Oct-14 15:00N 59°01' E 010°52'1515.3
2018-Oct-14 14:03N 59°01' E 010°23'115.5
2018-Oct-14 14:00N 59°01' E 010°22'612.4
2018-Oct-14 13:30N 59°06' E 010°14'2 3.9
2018-Oct-14 13:04N 59°08' E 010°14'0 0.0
2018-Oct-14 13:01N 59°08' E 010°14'0 0.1
2018-Oct-14 12:30N 59°08' E 010°14'511.9
2018-Oct-14 12:04N 59°02' E 010°15'115.1
2018-Oct-14 12:01N 59°02' E 010°16'815.2
2018-Oct-14 11:31N 59°00' E 010°31'715.1
2018-Oct-14 11:03N 59°02' E 010°44'115.2
2018-Oct-14 11:01N 59°02' E 010°45'815.2
2018-Oct-14 10:30N 58°60' E 010°59'614.3
2018-Oct-14 10:04N 58°56' E 011°09'0 5.5
2018-Oct-14 10:00N 58°56' E 011°10'0 0.2
2018-Oct-14 09:30N 58°56' E 011°10'0 0.0
2018-Oct-14 09:04N 58°56' E 011°10'0 0.3
2018-Oct-14 09:01N 58°56' E 011°10'611.8
2018-Oct-14 08:30N 58°59' E 011°00'715.5
2018-Oct-14 08:04N 59°02' E 010°48'916.2
2018-Oct-14 07:30N 59°01' E 010°31'715.6
2018-Oct-14 07:03N 59°01' E 010°17'115.1
2018-Oct-14 07:00N 59°02' E 010°16'611.4
2018-Oct-14 06:30N 59°08' E 010°14'0 0.0
2018-Oct-14 06:03N 59°08' E 010°14'0 0.0
2018-Oct-14 06:00N 59°08' E 010°14'1 2.8
2018-Oct-14 05:30N 59°06' E 010°14'0 0.2
2018-Oct-14 05:01N 59°06' E 010°14'0 0.0
2018-Oct-14 04:58N 59°06' E 010°14'0 0.0
2018-Oct-14 04:28N 59°06' E 010°14'0 0.0
2018-Oct-14 04:02N 59°06' E 010°14'0 0.0
2018-Oct-14 03:59N 59°06' E 010°14'0 0.0
2018-Oct-14 03:29N 59°06' E 010°14'0 0.0
2018-Oct-14 03:02N 59°06' E 010°14'0 0.0
2018-Oct-14 02:59N 59°06' E 010°14'0 0.0
2018-Oct-14 02:30N 59°06' E 010°14'0 0.0
2018-Oct-14 02:03N 59°06' E 010°14'0 0.0
2018-Oct-14 02:00N 59°06' E 010°14'0 0.0
2018-Oct-14 01:30N 59°06' E 010°14'0 0.0
2018-Oct-14 01:01N 59°06' E 010°14'0 0.0
2018-Oct-14 00:58N 59°06' E 010°14'0 0.0
2018-Oct-14 00:28N 59°06' E 010°14'0 0.0
2018-Oct-14 00:01N 59°06' E 010°14'0 0.1
2018-Oct-13 23:58N 59°06' E 010°14'0 0.0
2018-Oct-13 23:29N 59°06' E 010°14'0 0.0
2018-Oct-13 23:02N 59°06' E 010°14'0 0.0
2018-Oct-13 22:59N 59°06' E 010°14'0 0.0
2018-Oct-13 22:29N 59°06' E 010°14'0 0.0
2018-Oct-13 22:03N 59°06' E 010°14'0 0.0
2018-Oct-13 22:00N 59°06' E 010°14'0 0.0
2018-Oct-13 21:30N 59°06' E 010°14'0 0.0
2018-Oct-13 21:03N 59°06' E 010°14'0 0.0
2018-Oct-13 21:00N 59°06' E 010°14'0 0.0
2018-Oct-13 20:28N 59°06' E 010°14'0 0.0
2018-Oct-13 19:58N 59°06' E 010°14'1 2.2
2018-Oct-13 19:30N 59°07' E 010°14'0 0.9
2018-Oct-13 19:03N 59°08' E 010°14'0 0.1
2018-Oct-13 19:01N 59°08' E 010°14'611.0
2018-Oct-13 18:30N 59°02' E 010°15'614.4
2018-Oct-13 18:04N 59°00' E 010°28'115.4
2018-Oct-13 18:01N 59°00' E 010°29'815.1
2018-Oct-13 17:31N 59°02' E 010°44'614.4
2018-Oct-13 17:04N 59°01' E 010°56'114.7
2018-Oct-13 17:01N 59°00' E 010°57'714.6
2018-Oct-13 16:30N 58°56' E 011°09'1 1.9
2018-Oct-13 16:04N 58°56' E 011°10'0 0.0
2018-Oct-13 16:01N 58°56' E 011°10'3 6.7
2018-Oct-13 15:31N 58°57' E 011°04'714.8
2018-Oct-13 15:04N 59°01' E 010°53'115.2
2018-Oct-13 15:00N 59°01' E 010°52'714.8
2018-Oct-13 14:31N 59°01' E 010°38'815.1
2018-Oct-13 14:01N 59°01' E 010°23'713.0
2018-Oct-13 13:30N 59°06' E 010°14'2 4.6
2018-Oct-13 13:04N 59°08' E 010°14'0 0.0
2018-Oct-13 13:00N 59°08' E 010°14'0 0.0
2018-Oct-13 12:31N 59°08' E 010°14'510.9
2018-Oct-13 12:04N 59°03' E 010°15'114.4
2018-Oct-13 12:01N 59°02' E 010°16'714.4
2018-Oct-13 11:31N 59°00' E 010°29'715.3
2018-Oct-13 11:04N 59°01' E 010°43'115.7
2018-Oct-13 11:01N 59°02' E 010°44'815.4
2018-Oct-13 10:31N 58°60' E 010°59'714.9
2018-Oct-13 10:03N 58°56' E 011°09'0 7.0
2018-Oct-13 10:00N 58°56' E 011°10'0 0.1
2018-Oct-13 09:31N 58°56' E 011°10'0 0.0
2018-Oct-13 09:03N 58°56' E 011°10'0 0.4
2018-Oct-13 09:01N 58°56' E 011°10'611.1
2018-Oct-13 08:30N 58°59' E 011°01'715.4
2018-Oct-13 08:04N 59°02' E 010°49'115.9
2018-Oct-13 08:01N 59°02' E 010°47'816.2
2018-Oct-13 07:31N 59°00' E 010°31'715.3
2018-Oct-13 07:04N 59°01' E 010°18'115.8
2018-Oct-13 07:01N 59°01' E 010°17'612.0
2018-Oct-13 06:31N 59°07' E 010°14'0 0.7
2018-Oct-13 06:03N 59°08' E 010°14'0 0.0
2018-Oct-13 06:01N 59°08' E 010°14'0 0.5
2018-Oct-13 05:30N 59°07' E 010°14'1 2.4
2018-Oct-13 05:01N 59°06' E 010°14'0 0.0
2018-Oct-13 04:58N 59°06' E 010°14'0 0.0
2018-Oct-13 04:29N 59°06' E 010°14'0 0.0
2018-Oct-13 04:02N 59°06' E 010°14'0 0.0
2018-Oct-13 03:59N 59°06' E 010°14'0 0.0
2018-Oct-13 03:29N 59°06' E 010°14'0 0.0
2018-Oct-13 03:02N 59°06' E 010°14'0 0.0
2018-Oct-13 03:00N 59°06' E 010°14'0 0.0
2018-Oct-13 02:30N 59°06' E 010°14'0 0.0
2018-Oct-13 02:03N 59°06' E 010°14'0 0.1
2018-Oct-13 02:00N 59°06' E 010°14'0 0.0
2018-Oct-13 01:30N 59°06' E 010°14'0 0.0
2018-Oct-13 01:01N 59°06' E 010°14'0 0.1
2018-Oct-13 00:58N 59°06' E 010°14'0 0.0
2018-Oct-13 00:28N 59°06' E 010°14'0 0.0
2018-Oct-13 00:01N 59°06' E 010°14'0 0.1
2018-Oct-12 23:59N 59°06' E 010°14'0 0.0
2018-Oct-12 23:29N 59°06' E 010°14'0 0.0
2018-Oct-12 23:02N 59°06' E 010°14'0 0.0
2018-Oct-12 22:59N 59°06' E 010°14'0 0.0
2018-Oct-12 22:30N 59°06' E 010°14'0 0.0
2018-Oct-12 22:03N 59°06' E 010°14'0 0.1
2018-Oct-12 22:00N 59°06' E 010°14'0 0.0
2018-Oct-12 21:30N 59°06' E 010°14'0 0.0
2018-Oct-12 21:03N 59°06' E 010°14'0 0.0
2018-Oct-12 21:01N 59°06' E 010°14'0 0.0
2018-Oct-12 20:28N 59°06' E 010°14'0 0.0
2018-Oct-12 20:03N 59°06' E 010°14'0 0.0
2018-Oct-12 20:01N 59°06' E 010°14'1 2.8
2018-Oct-12 19:31N 59°08' E 010°14'0 0.0
2018-Oct-12 19:04N 59°08' E 010°14'0 3.3
2018-Oct-12 19:00N 59°07' E 010°14'611.9
2018-Oct-12 18:30N 59°02' E 010°16'714.6
2018-Oct-12 18:04N 59°00' E 010°29'114.7
2018-Oct-12 18:01N 59°00' E 010°30'714.3
2018-Oct-12 17:30N 59°02' E 010°44'614.5
2018-Oct-12 17:04N 59°01' E 010°57'114.4
2018-Oct-12 17:01N 59°00' E 010°58'714.3
2018-Oct-12 16:30N 58°56' E 011°09'1 1.9
2018-Oct-12 16:04N 58°56' E 011°10'0 0.0
2018-Oct-12 16:01N 58°56' E 011°10'3 6.7
2018-Oct-12 15:31N 58°57' E 011°04'714.9
2018-Oct-12 15:04N 59°01' E 010°53'115.2
2018-Oct-12 15:01N 59°01' E 010°52'1415.2
2018-Oct-12 14:03N 59°01' E 010°24'114.7
2018-Oct-12 14:00N 59°01' E 010°23'612.7
2018-Oct-12 13:31N 59°06' E 010°14'2 4.5
2018-Oct-12 13:04N 59°08' E 010°14'0 0.0
2018-Oct-12 13:01N 59°08' E 010°14'0 0.1
2018-Oct-12 12:31N 59°08' E 010°14'510.1
2018-Oct-12 12:04N 59°03' E 010°15'113.6
2018-Oct-12 12:01N 59°02' E 010°15'714.7
2018-Oct-12 11:31N 59°00' E 010°29'715.4
2018-Oct-12 11:04N 59°02' E 010°42'115.6
2018-Oct-12 11:01N 59°02' E 010°44'815.1
2018-Oct-12 10:31N 58°60' E 010°58'714.8
2018-Oct-12 10:04N 58°56' E 011°08'111.2
2018-Oct-12 10:00N 58°56' E 011°09'0 0.7
2018-Oct-12 09:30N 58°56' E 011°10'0 0.0
2018-Oct-12 09:04N 58°56' E 011°10'0 0.2
2018-Oct-12 09:01N 58°56' E 011°10'510.9
2018-Oct-12 08:31N 58°59' E 011°01'715.8
2018-Oct-12 08:03N 59°02' E 010°48'115.4
2018-Oct-12 08:01N 59°02' E 010°47'816.0
2018-Oct-12 07:31N 59°01' E 010°32'715.2
2018-Oct-12 07:04N 59°01' E 010°18'114.8
2018-Oct-12 07:01N 59°01' E 010°17'612.3
2018-Oct-12 06:30N 59°07' E 010°14'0 0.4
2018-Oct-12 06:03N 59°08' E 010°14'0 0.1
2018-Oct-12 06:01N 59°08' E 010°14'0 0.9
2018-Oct-12 05:30N 59°07' E 010°14'1 2.0
2018-Oct-12 05:01N 59°06' E 010°14'0 0.0
2018-Oct-12 04:58N 59°06' E 010°14'0 0.0
2018-Oct-12 04:28N 59°06' E 010°14'0 0.0
2018-Oct-12 04:01N 59°06' E 010°14'0 0.0
2018-Oct-12 03:55N 59°06' E 010°14'0 0.0
2018-Oct-12 03:29N 59°06' E 010°14'0 0.0
2018-Oct-12 03:02N 59°06' E 010°14'0 0.0
2018-Oct-12 02:59N 59°06' E 010°14'0 0.0
2018-Oct-12 02:29N 59°06' E 010°14'0 0.0
2018-Oct-12 02:03N 59°06' E 010°14'0 0.0
2018-Oct-12 02:00N 59°06' E 010°14'0 0.0
2018-Oct-12 01:30N 59°06' E 010°14'0 0.0
2018-Oct-12 01:03N 59°06' E 010°14'0 0.0
2018-Oct-12 01:00N 59°06' E 010°14'0 0.0
2018-Oct-12 00:28N 59°06' E 010°14'0 0.0
2018-Oct-12 00:01N 59°06' E 010°14'0 0.0
2018-Oct-11 23:58N 59°06' E 010°14'0 0.0
2018-Oct-11 23:28N 59°06' E 010°14'0 0.0
2018-Oct-11 23:02N 59°06' E 010°14'0 0.0
2018-Oct-11 22:59N 59°06' E 010°14'0 0.0
2018-Oct-11 22:29N 59°06' E 010°14'0 0.0
2018-Oct-11 22:02N 59°06' E 010°14'0 0.1
2018-Oct-11 21:59N 59°06' E 010°14'0 0.0
2018-Oct-11 21:30N 59°06' E 010°14'0 0.0
2018-Oct-11 21:03N 59°06' E 010°14'0 0.1
2018-Oct-11 21:00N 59°06' E 010°14'0 0.0
2018-Oct-11 20:30N 59°06' E 010°14'0 0.0
2018-Oct-11 20:04N 59°06' E 010°14'0 0.0
2018-Oct-11 20:01N 59°06' E 010°14'1 2.0
2018-Oct-11 19:30N 59°07' E 010°14'0 1.0
2018-Oct-11 19:04N 59°08' E 010°14'0 1.9
2018-Oct-11 19:00N 59°07' E 010°14'611.7
2018-Oct-11 18:31N 59°02' E 010°16'714.6
2018-Oct-11 18:04N 59°00' E 010°28'114.7
2018-Oct-11 18:01N 59°00' E 010°30'815.2
2018-Oct-11 17:30N 59°02' E 010°44'715.4
2018-Oct-11 17:04N 59°00' E 010°58'115.7
2018-Oct-11 17:01N 58°60' E 010°59'713.8
2018-Oct-11 16:31N 58°56' E 011°10'0 0.2
2018-Oct-11 16:03N 58°56' E 011°10'0 0.1
2018-Oct-11 16:00N 58°56' E 011°10'5 9.3
2018-Oct-11 15:30N 58°58' E 011°02'714.9
2018-Oct-11 15:03N 59°01' E 010°51'113.9
2018-Oct-11 15:00N 59°01' E 010°49'714.1
2018-Oct-11 14:30N 59°01' E 010°36'1212.2
2018-Oct-11 13:30N 59°06' E 010°14'2 4.2
2018-Oct-11 13:03N 59°08' E 010°14'0 0.0
2018-Oct-11 13:00N 59°08' E 010°14'0 0.2
2018-Oct-11 12:30N 59°07' E 010°14'510.6
2018-Oct-11 12:04N 59°03' E 010°15'114.3
2018-Oct-11 12:01N 59°02' E 010°15'714.5
2018-Oct-11 11:30N 59°00' E 010°29'714.9
2018-Oct-11 11:03N 59°01' E 010°42'115.2
2018-Oct-11 11:00N 59°01' E 010°44'714.6
2018-Oct-11 10:31N 58°60' E 010°57'714.7
2018-Oct-11 10:03N 58°56' E 011°08'113.2
2018-Oct-11 10:00N 58°56' E 011°09'1 1.4
2018-Oct-11 09:31N 58°56' E 011°10'0 0.0
2018-Oct-11 09:04N 58°56' E 011°10'0 0.6
2018-Oct-11 09:00N 58°56' E 011°10'611.6
2018-Oct-11 08:31N 58°59' E 011°01'715.1
2018-Oct-11 08:03N 59°02' E 010°48'114.9
2018-Oct-11 08:00N 59°02' E 010°47'815.1
2018-Oct-11 07:30N 59°00' E 010°33'715.2
2018-Oct-11 07:03N 59°01' E 010°19'115.1
2018-Oct-11 07:00N 59°01' E 010°18'612.7
2018-Oct-11 06:30N 59°07' E 010°14'0 0.5
2018-Oct-11 06:03N 59°08' E 010°14'0 0.0
2018-Oct-11 06:00N 59°08' E 010°14'1 2.8
2018-Oct-11 05:30N 59°06' E 010°14'0 0.1
2018-Oct-11 05:03N 59°06' E 010°14'0 0.0
2018-Oct-11 05:00N 59°06' E 010°14'0 0.0
2018-Oct-11 04:31N 59°06' E 010°14'0 0.0
2018-Oct-11 04:03N 59°06' E 010°14'0 0.1
2018-Oct-11 04:00N 59°06' E 010°14'0 0.0
2018-Oct-11 03:30N 59°06' E 010°14'0 0.0
2018-Oct-11 03:03N 59°06' E 010°14'0 0.0
2018-Oct-11 03:00N 59°06' E 010°14'0 0.0
2018-Oct-11 02:31N 59°06' E 010°14'0 0.0
2018-Oct-11 02:04N 59°06' E 010°14'0 0.0
2018-Oct-11 02:01N 59°06' E 010°14'0 0.0
2018-Oct-11 01:30N 59°06' E 010°14'0 0.0
2018-Oct-11 01:03N 59°06' E 010°14'0 0.0
2018-Oct-11 01:00N 59°06' E 010°14'0 0.0
2018-Oct-11 00:30N 59°06' E 010°14'0 0.0
2018-Oct-11 00:03N 59°06' E 010°14'0 0.1
2018-Oct-11 00:00N 59°06' E 010°14'0 0.0
2018-Oct-10 23:31N 59°06' E 010°14'0 0.0
2018-Oct-10 23:03N 59°06' E 010°14'0 0.0
2018-Oct-10 23:00N 59°06' E 010°14'0 0.0
2018-Oct-10 22:31N 59°06' E 010°14'0 0.0
2018-Oct-10 22:03N 59°06' E 010°14'0 0.0
2018-Oct-10 22:00N 59°06' E 010°14'0 0.0
2018-Oct-10 21:30N 59°06' E 010°14'0 0.0
2018-Oct-10 21:04N 59°06' E 010°14'0 0.0
2018-Oct-10 21:01N 59°06' E 010°14'0 0.0
2018-Oct-10 20:30N 59°06' E 010°14'0 0.0
2018-Oct-10 20:04N 59°06' E 010°14'0 0.0
2018-Oct-10 20:01N 59°06' E 010°14'1 2.4
2018-Oct-10 19:30N 59°07' E 010°14'0 0.5
2018-Oct-10 19:03N 59°08' E 010°14'0 2.6
2018-Oct-10 19:00N 59°07' E 010°14'611.4
2018-Oct-10 18:30N 59°02' E 010°16'714.6
2018-Oct-10 18:03N 59°01' E 010°28'114.8
2018-Oct-10 18:01N 59°00' E 010°30'714.4
2018-Oct-10 17:30N 59°02' E 010°44'714.5
2018-Oct-10 17:03N 59°00' E 010°56'112.3
2018-Oct-10 17:00N 59°00' E 010°57'714.5
2018-Oct-10 16:30N 58°56' E 011°08'1 2.2
2018-Oct-10 16:03N 58°56' E 011°10'0 0.0
2018-Oct-10 16:00N 58°56' E 011°10'4 7.8
2018-Oct-10 15:30N 58°57' E 011°03'614.3
2018-Oct-10 15:04N 59°01' E 010°53'114.9
2018-Oct-10 15:00N 59°01' E 010°51'1415.1
2018-Oct-10 14:04N 59°01' E 010°23'115.8
2018-Oct-10 14:01N 59°01' E 010°22'  

Dump ship's entire track history